Main page
METAR-TAF:

METAR-TAF

Airports :

Truckee Tahoe Airport

Truckee, California, United States

latitude: 39-19N, longitude: 120-08W, elevation: 5897 ft

Current weather observation

The report was made 22 minutes ago, at 05:35 UTC
Wind 35 mph from the South/Southwest with gusts up to 45 mph
Temperature 32°F
Humidity 93%
Pressure 29.54 in. Hg
Visibility: 0.5 miles
Overcast at a height of 500 ft
heavy snow

METAR: KTRK 020535Z AUTO 20030G39KT 1/2SM +SN OVC005 00/M01 A2954 RMK AO2

Time: 21:57 (05:57 UTC)

Forecast

The report was made 37 minutes ago, at 05:20 UTC
Forecast valid from 02 at 06 UTC to 03 at 06 UTC
Wind 15 mph from the South/Southwest with gusts up to 29 mph
Visibility: 0.25 miles
at a height of 500 ft
heavy snow, Blowing snow
From 03 at 0000 UTC
Wind 12 mph from the West/Southwest with gusts up to 21 mph
Visibility: 0.5 miles
Overcast at a height of 700 ft
snow, Blowing snow,

TAF: KTRK 020520Z 0206/0306 21013G25KT 1/4SM +SN BLSN VV005 WS020/23055KT FM030000 24010G18KT 1/2SM SN BLSN OVC007

Weather observations and forecasts of more than 4000 airports (METAR and TAF reports).

The available stations are represented by yellow and red dots on the map.

Hover mouse over dot to see the name of the station.

Then click to see weather observations and forecasts.

To change the map : click on the green buttons with a black cross to zoom in, on the green button with a dash to zoom out, or on the green arrows for adjacent maps.


METAR-TAF: